Terminal Aerodrome Forecast
Issued by NWS

Home | Current Version | Previous Version | Text Only | Print | Product List | Glossary On
Versions: 1 2 3 4 5 6 7 8 9 10 11 12 13 14 15 16
735
FTPA31 PHFO 191722
TAFHOG
TAF
PHOG 191722Z 1918/2018 02018G25KT P6SM VCSH SCT025 BKN035
      TEMPO 1918/1920 BKN025
     FM192000 04022G30KT P6SM SCT025 SCT040
     FM200400 04014G22KT P6SM FEW025 SCT045
      AMD LTD TO VIS AND WIND 2009/2016=

USA.gov is the U.S. government's official web portal to all federal, state and local government web resources and services.